sensor_id;sensor_type;location;lat;lon;timestamp;temperature;humidity
18073;DHT22;9161;47.348;9.648;2023-04-09T00:02:23;6.20;99.90
18073;DHT22;9161;47.348;9.648;2023-04-09T00:07:27;6.20;99.90
18073;DHT22;9161;47.348;9.648;2023-04-09T00:12:30;6.10;99.90
18073;DHT22;9161;47.348;9.648;2023-04-09T00:17:32;6.20;99.90
18073;DHT22;9161;47.348;9.648;2023-04-09T00:22:36;6.20;99.90
18073;DHT22;9161;47.348;9.648;2023-04-09T00:27:38;6.10;99.90
18073;DHT22;9161;47.348;9.648;2023-04-09T00:32:40;6.10;99.90
18073;DHT22;9161;47.348;9.648;2023-04-09T00:37:44;6.30;99.90
18073;DHT22;9161;47.348;9.648;2023-04-09T00:42:46;6.10;99.90
18073;DHT22;9161;47.348;9.648;2023-04-09T00:47:49;6.20;99.90
18073;DHT22;9161;47.348;9.648;2023-04-09T00:52:53;6.10;99.90
18073;DHT22;9161;47.348;9.648;2023-04-09T00:57:55;6.10;99.90
18073;DHT22;9161;47.348;9.648;2023-04-09T01:02:58;6.20;99.90
18073;DHT22;9161;47.348;9.648;2023-04-09T01:08:06;6.20;99.90
18073;DHT22;9161;47.348;9.648;2023-04-09T01:13:12;6.10;99.90
18073;DHT22;9161;47.348;9.648;2023-04-09T01:18:22;6.10;99.90
18073;DHT22;9161;47.348;9.648;2023-04-09T01:23:36;6.00;99.90
18073;DHT22;9161;47.348;9.648;2023-04-09T01:28:48;5.90;99.90
18073;DHT22;9161;47.348;9.648;2023-04-09T01:33:51;5.80;99.90
18073;DHT22;9161;47.348;9.648;2023-04-09T01:38:55;5.80;99.90
18073;DHT22;9161;47.348;9.648;2023-04-09T01:44:01;5.70;99.90
18073;DHT22;9161;47.348;9.648;2023-04-09T01:49:04;5.70;99.90
18073;DHT22;9161;47.348;9.648;2023-04-09T01:54:07;5.60;99.90
18073;DHT22;9161;47.348;9.648;2023-04-09T01:59:11;5.60;99.90
18073;DHT22;9161;47.348;9.648;2023-04-09T02:04:19;5.60;99.90
18073;DHT22;9161;47.348;9.648;2023-04-09T02:09:23;5.70;99.90
18073;DHT22;9161;47.348;9.648;2023-04-09T02:14:28;5.70;99.90
18073;DHT22;9161;47.348;9.648;2023-04-09T02:19:39;5.60;99.90
18073;DHT22;9161;47.348;9.648;2023-04-09T02:24:42;5.60;99.90
18073;DHT22;9161;47.348;9.648;2023-04-09T02:29:45;5.50;99.90
18073;DHT22;9161;47.348;9.648;2023-04-09T02:34:47;5.60;99.90
18073;DHT22;9161;47.348;9.648;2023-04-09T02:39:50;5.70;99.90
18073;DHT22;9161;47.348;9.648;2023-04-09T02:44:53;5.70;99.90
18073;DHT22;9161;47.348;9.648;2023-04-09T02:49:55;5.70;99.90
18073;DHT22;9161;47.348;9.648;2023-04-09T02:54:57;5.90;99.90
18073;DHT22;9161;47.348;9.648;2023-04-09T03:00:01;5.90;99.90
18073;DHT22;9161;47.348;9.648;2023-04-09T03:05:04;5.90;99.90
18073;DHT22;9161;47.348;9.648;2023-04-09T03:10:07;5.90;99.90
18073;DHT22;9161;47.348;9.648;2023-04-09T03:15:10;5.90;99.90
18073;DHT22;9161;47.348;9.648;2023-04-09T03:20:12;5.90;99.90
18073;DHT22;9161;47.348;9.648;2023-04-09T03:25:15;5.90;99.90
18073;DHT22;9161;47.348;9.648;2023-04-09T03:30:20;5.90;99.90
18073;DHT22;9161;47.348;9.648;2023-04-09T03:35:22;5.80;99.90
18073;DHT22;9161;47.348;9.648;2023-04-09T03:40:25;5.80;99.90
18073;DHT22;9161;47.348;9.648;2023-04-09T03:45:29;5.80;99.90
18073;DHT22;9161;47.348;9.648;2023-04-09T03:50:37;5.80;99.90
18073;DHT22;9161;47.348;9.648;2023-04-09T03:55:39;5.80;99.90
18073;DHT22;9161;47.348;9.648;2023-04-09T04:00:43;5.80;99.90
18073;DHT22;9161;47.348;9.648;2023-04-09T04:05:46;5.70;99.90
18073;DHT22;9161;47.348;9.648;2023-04-09T04:10:48;5.70;99.90
18073;DHT22;9161;47.348;9.648;2023-04-09T04:15:51;5.70;99.90
18073;DHT22;9161;47.348;9.648;2023-04-09T04:20:53;5.60;99.90
18073;DHT22;9161;47.348;9.648;2023-04-09T04:25:56;5.60;99.90
18073;DHT22;9161;47.348;9.648;2023-04-09T04:30:59;5.50;99.90
18073;DHT22;9161;47.348;9.648;2023-04-09T04:36:05;5.50;99.90
18073;DHT22;9161;47.348;9.648;2023-04-09T04:41:08;5.50;99.90
18073;DHT22;9161;47.348;9.648;2023-04-09T04:46:12;5.50;99.90
18073;DHT22;9161;47.348;9.648;2023-04-09T04:51:14;5.50;99.90
18073;DHT22;9161;47.348;9.648;2023-04-09T04:56:16;5.50;99.90
18073;DHT22;9161;47.348;9.648;2023-04-09T05:01:19;5.50;99.90
18073;DHT22;9161;47.348;9.648;2023-04-09T05:06:21;5.50;99.90
18073;DHT22;9161;47.348;9.648;2023-04-09T05:11:24;5.60;99.90
18073;DHT22;9161;47.348;9.648;2023-04-09T05:16:27;5.80;99.90
18073;DHT22;9161;47.348;9.648;2023-04-09T05:21:29;5.90;99.90
18073;DHT22;9161;47.348;9.648;2023-04-09T05:26:31;5.90;99.90
18073;DHT22;9161;47.348;9.648;2023-04-09T05:31:35;5.90;99.90
18073;DHT22;9161;47.348;9.648;2023-04-09T05:36:37;5.80;99.90
18073;DHT22;9161;47.348;9.648;2023-04-09T05:41:39;5.90;99.90
18073;DHT22;9161;47.348;9.648;2023-04-09T05:46:43;5.80;99.90
18073;DHT22;9161;47.348;9.648;2023-04-09T05:51:45;5.90;99.90
18073;DHT22;9161;47.348;9.648;2023-04-09T05:56:49;5.90;99.90
18073;DHT22;9161;47.348;9.648;2023-04-09T06:01:53;5.90;99.90
18073;DHT22;9161;47.348;9.648;2023-04-09T06:06:55;5.90;99.90
18073;DHT22;9161;47.348;9.648;2023-04-09T06:12:00;6.00;99.90
18073;DHT22;9161;47.348;9.648;2023-04-09T06:17:03;6.10;99.90
18073;DHT22;9161;47.348;9.648;2023-04-09T06:22:08;6.40;99.90
18073;DHT22;9161;47.348;9.648;2023-04-09T06:27:11;6.60;99.90
18073;DHT22;9161;47.348;9.648;2023-04-09T06:32:15;6.80;99.90
18073;DHT22;9161;47.348;9.648;2023-04-09T06:37:18;7.00;99.90
18073;DHT22;9161;47.348;9.648;2023-04-09T06:42:20;7.10;99.90
18073;DHT22;9161;47.348;9.648;2023-04-09T06:47:23;7.70;99.90
18073;DHT22;9161;47.348;9.648;2023-04-09T06:52:26;7.70;99.90
18073;DHT22;9161;47.348;9.648;2023-04-09T06:57:28;7.70;99.90
18073;DHT22;9161;47.348;9.648;2023-04-09T07:02:32;7.90;99.90
18073;DHT22;9161;47.348;9.648;2023-04-09T07:07:35;8.10;99.90
18073;DHT22;9161;47.348;9.648;2023-04-09T07:12:37;8.20;99.90
18073;DHT22;9161;47.348;9.648;2023-04-09T07:17:41;8.50;99.90
18073;DHT22;9161;47.348;9.648;2023-04-09T07:22:43;8.60;99.90
18073;DHT22;9161;47.348;9.648;2023-04-09T07:27:46;8.90;99.90
18073;DHT22;9161;47.348;9.648;2023-04-09T07:32:51;9.00;99.90
18073;DHT22;9161;47.348;9.648;2023-04-09T07:37:53;9.10;99.90
18073;DHT22;9161;47.348;9.648;2023-04-09T07:43:06;9.40;99.90
18073;DHT22;9161;47.348;9.648;2023-04-09T07:48:10;9.40;99.90
18073;DHT22;9161;47.348;9.648;2023-04-09T07:53:12;9.40;99.90
18073;DHT22;9161;47.348;9.648;2023-04-09T07:58:14;9.60;99.90
18073;DHT22;9161;47.348;9.648;2023-04-09T08:03:18;9.70;99.90
18073;DHT22;9161;47.348;9.648;2023-04-09T08:08:21;10.00;99.90
18073;DHT22;9161;47.348;9.648;2023-04-09T08:13:23;10.60;99.90
18073;DHT22;9161;47.348;9.648;2023-04-09T08:18:27;10.60;99.90
18073;DHT22;9161;47.348;9.648;2023-04-09T08:23:29;10.90;99.90
18073;DHT22;9161;47.348;9.648;2023-04-09T08:28:32;11.60;99.90
18073;DHT22;9161;47.348;9.648;2023-04-09T08:33:35;12.40;99.90
18073;DHT22;9161;47.348;9.648;2023-04-09T08:38:38;12.30;99.90
18073;DHT22;9161;47.348;9.648;2023-04-09T08:43:42;12.10;99.90
18073;DHT22;9161;47.348;9.648;2023-04-09T08:48:59;13.00;99.90
18073;DHT22;9161;47.348;9.648;2023-04-09T08:54:02;13.40;99.90
18073;DHT22;9161;47.348;9.648;2023-04-09T08:59:05;14.60;99.90
18073;DHT22;9161;47.348;9.648;2023-04-09T09:04:11;14.80;99.90
18073;DHT22;9161;47.348;9.648;2023-04-09T09:09:14;15.80;99.90
18073;DHT22;9161;47.348;9.648;2023-04-09T09:14:18;16.40;99.90
18073;DHT22;9161;47.348;9.648;2023-04-09T09:19:30;17.00;99.90
18073;DHT22;9161;47.348;9.648;2023-04-09T09:24:33;17.40;99.90
18073;DHT22;9161;47.348;9.648;2023-04-09T09:29:40;16.70;99.90
18073;DHT22;9161;47.348;9.648;2023-04-09T09:34:58;17.20;99.90
18073;DHT22;9161;47.348;9.648;2023-04-09T09:40:01;17.70;99.90
18073;DHT22;9161;47.348;9.648;2023-04-09T09:45:16;18.00;99.90
18073;DHT22;9161;47.348;9.648;2023-04-09T09:50:23;18.30;99.90
18073;DHT22;9161;47.348;9.648;2023-04-09T09:55:30;18.70;99.90
18073;DHT22;9161;47.348;9.648;2023-04-09T10:00:36;19.20;99.90
18073;DHT22;9161;47.348;9.648;2023-04-09T10:05:41;19.40;99.90
18073;DHT22;9161;47.348;9.648;2023-04-09T10:10:44;19.60;99.90
18073;DHT22;9161;47.348;9.648;2023-04-09T10:15:50;20.00;99.90
18073;DHT22;9161;47.348;9.648;2023-04-09T10:20:58;18.10;99.90
18073;DHT22;9161;47.348;9.648;2023-04-09T10:26:01;18.30;99.90
18073;DHT22;9161;47.348;9.648;2023-04-09T10:31:04;19.90;99.90
18073;DHT22;9161;47.348;9.648;2023-04-09T10:36:11;21.20;99.90
18073;DHT22;9161;47.348;9.648;2023-04-09T10:41:16;21.50;99.90
18073;DHT22;9161;47.348;9.648;2023-04-09T10:46:26;21.80;99.90
18073;DHT22;9161;47.348;9.648;2023-04-09T10:51:35;22.10;99.90
18073;DHT22;9161;47.348;9.648;2023-04-09T10:56:39;22.40;99.90
18073;DHT22;9161;47.348;9.648;2023-04-09T11:01:51;22.60;99.90
18073;DHT22;9161;47.348;9.648;2023-04-09T11:06:55;21.30;99.90
18073;DHT22;9161;47.348;9.648;2023-04-09T11:11:59;21.80;99.90
18073;DHT22;9161;47.348;9.648;2023-04-09T11:17:02;22.20;99.90
18073;DHT22;9161;47.348;9.648;2023-04-09T11:22:05;22.50;99.90
18073;DHT22;9161;47.348;9.648;2023-04-09T11:27:07;23.50;98.50
18073;DHT22;9161;47.348;9.648;2023-04-09T11:32:12;23.00;98.90
18073;DHT22;9161;47.348;9.648;2023-04-09T11:37:16;23.30;98.90
18073;DHT22;9161;47.348;9.648;2023-04-09T11:42:19;23.80;98.80
18073;DHT22;9161;47.348;9.648;2023-04-09T11:47:21;24.00;97.90
18073;DHT22;9161;47.348;9.648;2023-04-09T11:52:26;24.50;95.00
18073;DHT22;9161;47.348;9.648;2023-04-09T11:57:39;24.40;95.20
18073;DHT22;9161;47.348;9.648;2023-04-09T12:02:44;24.80;92.80
18073;DHT22;9161;47.348;9.648;2023-04-09T12:07:49;25.70;94.70
18073;DHT22;9161;47.348;9.648;2023-04-09T12:13:00;25.20;94.30
18073;DHT22;9161;47.348;9.648;2023-04-09T12:18:06;26.10;92.60
18073;DHT22;9161;47.348;9.648;2023-04-09T12:23:11;26.20;91.90
18073;DHT22;9161;47.348;9.648;2023-04-09T12:28:14;26.30;87.00
18073;DHT22;9161;47.348;9.648;2023-04-09T12:33:18;24.80;90.80
18073;DHT22;9161;47.348;9.648;2023-04-09T12:38:22;24.80;91.10
18073;DHT22;9161;47.348;9.648;2023-04-09T12:43:24;23.20;90.60
18073;DHT22;9161;47.348;9.648;2023-04-09T12:48:26;22.80;88.00
18073;DHT22;9161;47.348;9.648;2023-04-09T12:53:30;23.30;88.60
18073;DHT22;9161;47.348;9.648;2023-04-09T12:58:32;25.60;89.10
18073;DHT22;9161;47.348;9.648;2023-04-09T13:03:35;25.90;87.30
18073;DHT22;9161;47.348;9.648;2023-04-09T13:08:38;25.90;85.80
18073;DHT22;9161;47.348;9.648;2023-04-09T13:13:41;25.80;86.50
18073;DHT22;9161;47.348;9.648;2023-04-09T13:18:43;25.30;88.10
18073;DHT22;9161;47.348;9.648;2023-04-09T13:23:47;25.80;81.00
18073;DHT22;9161;47.348;9.648;2023-04-09T13:28:50;23.50;81.50
18073;DHT22;9161;47.348;9.648;2023-04-09T13:33:54;23.40;85.70
18073;DHT22;9161;47.348;9.648;2023-04-09T13:38:59;26.60;82.90
18073;DHT22;9161;47.348;9.648;2023-04-09T13:44:06;24.80;78.10
18073;DHT22;9161;47.348;9.648;2023-04-09T13:49:11;26.80;79.70
18073;DHT22;9161;47.348;9.648;2023-04-09T13:54:16;28.60;78.70
18073;DHT22;9161;47.348;9.648;2023-04-09T13:59:19;28.00;75.00
18073;DHT22;9161;47.348;9.648;2023-04-09T14:04:21;28.30;74.00
18073;DHT22;9161;47.348;9.648;2023-04-09T14:09:25;28.00;71.50
18073;DHT22;9161;47.348;9.648;2023-04-09T14:14:27;26.80;74.80
18073;DHT22;9161;47.348;9.648;2023-04-09T14:19:30;27.50;72.40
18073;DHT22;9161;47.348;9.648;2023-04-09T14:24:34;25.20;76.60
18073;DHT22;9161;47.348;9.648;2023-04-09T14:29:39;26.20;73.40
18073;DHT22;9161;47.348;9.648;2023-04-09T14:34:42;27.20;72.50
18073;DHT22;9161;47.348;9.648;2023-04-09T14:39:46;26.90;71.70
18073;DHT22;9161;47.348;9.648;2023-04-09T14:44:48;27.00;69.40
18073;DHT22;9161;47.348;9.648;2023-04-09T14:49:50;27.60;69.60
18073;DHT22;9161;47.348;9.648;2023-04-09T14:54:54;27.80;68.30
18073;DHT22;9161;47.348;9.648;2023-04-09T14:59:56;25.50;68.10
18073;DHT22;9161;47.348;9.648;2023-04-09T15:04:59;26.40;70.50
18073;DHT22;9161;47.348;9.648;2023-04-09T15:10:03;24.90;68.40
18073;DHT22;9161;47.348;9.648;2023-04-09T15:15:07;26.80;67.30
18073;DHT22;9161;47.348;9.648;2023-04-09T15:20:10;26.60;70.10
18073;DHT22;9161;47.348;9.648;2023-04-09T15:25:15;26.30;67.40
18073;DHT22;9161;47.348;9.648;2023-04-09T15:30:17;23.30;70.70
18073;DHT22;9161;47.348;9.648;2023-04-09T15:35:20;23.00;73.00
18073;DHT22;9161;47.348;9.648;2023-04-09T15:40:26;23.50;71.30
18073;DHT22;9161;47.348;9.648;2023-04-09T15:45:32;23.80;75.70
18073;DHT22;9161;47.348;9.648;2023-04-09T15:50:34;22.60;71.90
18073;DHT22;9161;47.348;9.648;2023-04-09T15:55:38;22.70;73.30
18073;DHT22;9161;47.348;9.648;2023-04-09T16:00:40;22.10;73.50
18073;DHT22;9161;47.348;9.648;2023-04-09T16:05:42;20.70;73.40
18073;DHT22;9161;47.348;9.648;2023-04-09T16:10:46;20.50;76.50
18073;DHT22;9161;47.348;9.648;2023-04-09T16:15:48;21.90;75.30
18073;DHT22;9161;47.348;9.648;2023-04-09T16:20:51;20.60;74.80
18073;DHT22;9161;47.348;9.648;2023-04-09T16:25:55;19.60;78.10
18073;DHT22;9161;47.348;9.648;2023-04-09T16:30:58;19.70;77.80
18073;DHT22;9161;47.348;9.648;2023-04-09T16:36:01;18.70;77.70
18073;DHT22;9161;47.348;9.648;2023-04-09T16:41:05;18.20;79.90
18073;DHT22;9161;47.348;9.648;2023-04-09T16:46:07;17.90;78.10
18073;DHT22;9161;47.348;9.648;2023-04-09T16:51:10;17.40;79.40
18073;DHT22;9161;47.348;9.648;2023-04-09T16:56:14;17.10;82.60
18073;DHT22;9161;47.348;9.648;2023-04-09T17:01:16;17.10;82.90
18073;DHT22;9161;47.348;9.648;2023-04-09T17:06:18;17.10;84.00
18073;DHT22;9161;47.348;9.648;2023-04-09T17:11:22;16.10;85.30
18073;DHT22;9161;47.348;9.648;2023-04-09T17:16:25;15.80;85.80
18073;DHT22;9161;47.348;9.648;2023-04-09T17:21:27;15.70;86.20
18073;DHT22;9161;47.348;9.648;2023-04-09T17:26:31;15.70;88.70
18073;DHT22;9161;47.348;9.648;2023-04-09T17:31:34;15.50;90.50
18073;DHT22;9161;47.348;9.648;2023-04-09T17:36:36;14.70;90.50
18073;DHT22;9161;47.348;9.648;2023-04-09T17:41:40;14.10;91.90
18073;DHT22;9161;47.348;9.648;2023-04-09T17:46:43;13.50;93.00
18073;DHT22;9161;47.348;9.648;2023-04-09T17:51:46;13.00;94.10
18073;DHT22;9161;47.348;9.648;2023-04-09T17:56:50;12.60;94.60
18073;DHT22;9161;47.348;9.648;2023-04-09T18:01:52;12.20;95.40
18073;DHT22;9161;47.348;9.648;2023-04-09T18:06:56;11.90;96.10
18073;DHT22;9161;47.348;9.648;2023-04-09T18:12:00;11.40;96.60
18073;DHT22;9161;47.348;9.648;2023-04-09T18:17:02;10.90;97.00
18073;DHT22;9161;47.348;9.648;2023-04-09T18:22:04;10.50;97.70
18073;DHT22;9161;47.348;9.648;2023-04-09T18:27:08;10.20;97.70
18073;DHT22;9161;47.348;9.648;2023-04-09T18:32:12;9.90;98.00
18073;DHT22;9161;47.348;9.648;2023-04-09T18:37:14;9.70;98.40
18073;DHT22;9161;47.348;9.648;2023-04-09T18:42:19;9.80;98.40
18073;DHT22;9161;47.348;9.648;2023-04-09T18:47:21;10.10;97.90
18073;DHT22;9161;47.348;9.648;2023-04-09T18:52:23;9.90;98.40
18073;DHT22;9161;47.348;9.648;2023-04-09T18:57:28;9.80;99.50
18073;DHT22;9161;47.348;9.648;2023-04-09T19:02:30;9.60;99.10
18073;DHT22;9161;47.348;9.648;2023-04-09T19:07:33;9.50;99.50
18073;DHT22;9161;47.348;9.648;2023-04-09T19:12:38;9.40;99.60
18073;DHT22;9161;47.348;9.648;2023-04-09T19:17:46;9.00;99.90
18073;DHT22;9161;47.348;9.648;2023-04-09T19:22:49;8.90;99.90
18073;DHT22;9161;47.348;9.648;2023-04-09T19:27:57;8.80;99.90
18073;DHT22;9161;47.348;9.648;2023-04-09T19:32:59;9.00;99.90
18073;DHT22;9161;47.348;9.648;2023-04-09T19:38:02;8.60;99.90
18073;DHT22;9161;47.348;9.648;2023-04-09T19:43:06;8.50;99.90
18073;DHT22;9161;47.348;9.648;2023-04-09T19:48:08;8.30;99.90
18073;DHT22;9161;47.348;9.648;2023-04-09T19:53:11;8.10;99.90
18073;DHT22;9161;47.348;9.648;2023-04-09T19:58:23;7.90;99.90
18073;DHT22;9161;47.348;9.648;2023-04-09T20:03:34;7.80;99.90
18073;DHT22;9161;47.348;9.648;2023-04-09T20:08:37;7.70;99.90
18073;DHT22;9161;47.348;9.648;2023-04-09T20:13:40;8.00;99.90
18073;DHT22;9161;47.348;9.648;2023-04-09T20:18:42;7.90;99.90
18073;DHT22;9161;47.348;9.648;2023-04-09T20:23:45;8.00;99.90
18073;DHT22;9161;47.348;9.648;2023-04-09T20:28:49;8.00;99.90
18073;DHT22;9161;47.348;9.648;2023-04-09T20:33:51;8.10;99.90
18073;DHT22;9161;47.348;9.648;2023-04-09T20:38:54;7.80;99.90
18073;DHT22;9161;47.348;9.648;2023-04-09T20:43:58;7.40;99.90
18073;DHT22;9161;47.348;9.648;2023-04-09T20:54:55;6.90;99.90
18073;DHT22;9161;47.348;9.648;2023-04-09T21:00:14;6.70;99.90
18073;DHT22;9161;47.348;9.648;2023-04-09T21:05:30;6.60;99.90
18073;DHT22;9161;47.348;9.648;2023-04-09T21:10:33;6.40;99.90
18073;DHT22;9161;47.348;9.648;2023-04-09T21:15:38;6.40;99.90
18073;DHT22;9161;47.348;9.648;2023-04-09T21:20:42;6.20;99.90
18073;DHT22;9161;47.348;9.648;2023-04-09T21:25:45;6.00;99.90
18073;DHT22;9161;47.348;9.648;2023-04-09T21:30:49;5.90;99.90
18073;DHT22;9161;47.348;9.648;2023-04-09T21:35:52;6.10;99.90
18073;DHT22;9161;47.348;9.648;2023-04-09T21:40:54;6.10;99.90
18073;DHT22;9161;47.348;9.648;2023-04-09T21:45:58;6.00;99.90
18073;DHT22;9161;47.348;9.648;2023-04-09T21:51:01;5.80;99.90
18073;DHT22;9161;47.348;9.648;2023-04-09T21:56:04;5.80;99.90
18073;DHT22;9161;47.348;9.648;2023-04-09T22:01:08;5.60;99.90
18073;DHT22;9161;47.348;9.648;2023-04-09T22:06:28;5.40;99.90
18073;DHT22;9161;47.348;9.648;2023-04-09T22:11:30;5.30;99.90
18073;DHT22;9161;47.348;9.648;2023-04-09T22:16:35;5.30;99.90
18073;DHT22;9161;47.348;9.648;2023-04-09T22:21:38;5.30;99.90
18073;DHT22;9161;47.348;9.648;2023-04-09T22:26:40;5.10;99.90
18073;DHT22;9161;47.348;9.648;2023-04-09T22:31:48;4.80;99.90
18073;DHT22;9161;47.348;9.648;2023-04-09T22:36:51;4.80;99.90
18073;DHT22;9161;47.348;9.648;2023-04-09T22:41:54;5.00;99.90
18073;DHT22;9161;47.348;9.648;2023-04-09T22:46:57;5.00;99.90
18073;DHT22;9161;47.348;9.648;2023-04-09T22:52:00;5.00;99.90
18073;DHT22;9161;47.348;9.648;2023-04-09T22:57:02;4.80;99.90
18073;DHT22;9161;47.348;9.648;2023-04-09T23:02:05;4.70;99.90
18073;DHT22;9161;47.348;9.648;2023-04-09T23:07:08;4.60;99.90
18073;DHT22;9161;47.348;9.648;2023-04-09T23:12:10;4.70;99.90
18073;DHT22;9161;47.348;9.648;2023-04-09T23:17:14;4.70;99.90
18073;DHT22;9161;47.348;9.648;2023-04-09T23:22:16;4.60;99.90
18073;DHT22;9161;47.348;9.648;2023-04-09T23:27:19;4.50;99.90
18073;DHT22;9161;47.348;9.648;2023-04-09T23:32:29;4.40;99.90
18073;DHT22;9161;47.348;9.648;2023-04-09T23:37:32;4.70;99.90
18073;DHT22;9161;47.348;9.648;2023-04-09T23:42:34;4.60;99.90
18073;DHT22;9161;47.348;9.648;2023-04-09T23:47:38;4.40;99.90
18073;DHT22;9161;47.348;9.648;2023-04-09T23:52:45;4.10;99.90
18073;DHT22;9161;47.348;9.648;2023-04-09T23:57:48;4.10;99.90
